sensor_id;sensor_type;location;lat;lon;timestamp;pressure;altitude;pressure_sealevel;temperature;humidity
59158;BME280;44940;55.060;73.168;2022-08-25T00:01:08;101393.56;;;10.46;100.00
59158;BME280;44940;55.060;73.168;2022-08-25T00:03:35;101398.28;;;10.46;100.00
59158;BME280;44940;55.060;73.168;2022-08-25T00:06:04;101402.34;;;10.48;100.00
59158;BME280;44940;55.060;73.168;2022-08-25T00:08:31;101399.09;;;10.46;100.00
59158;BME280;44940;55.060;73.168;2022-08-25T00:11:00;101398.75;;;10.48;100.00
59158;BME280;44940;55.060;73.168;2022-08-25T00:13:28;101399.56;;;10.48;100.00
59158;BME280;44940;55.060;73.168;2022-08-25T00:15:56;101395.66;;;10.49;100.00
59158;BME280;44940;55.060;73.168;2022-08-25T00:18:24;101396.16;;;10.51;100.00
59158;BME280;44940;55.060;73.168;2022-08-25T00:20:51;101384.91;;;10.48;100.00
59158;BME280;44940;55.060;73.168;2022-08-25T00:23:18;101402.66;;;10.55;100.00
59158;BME280;44940;55.060;73.168;2022-08-25T00:25:46;101394.81;;;10.57;100.00
59158;BME280;44940;55.060;73.168;2022-08-25T00:28:14;101395.00;;;10.61;100.00
59158;BME280;44940;55.060;73.168;2022-08-25T00:30:43;101376.09;;;10.63;100.00
59158;BME280;44940;55.060;73.168;2022-08-25T00:33:11;101389.97;;;11.18;100.00
59158;BME280;44940;55.060;73.168;2022-08-25T00:35:40;101373.47;;;11.51;100.00
59158;BME280;44940;55.060;73.168;2022-08-25T00:38:08;71117.31;;;-144.94;100.00
59158;BME280;44940;55.060;73.168;2022-08-25T00:40:35;101374.13;;;11.87;100.00
59158;BME280;44940;55.060;73.168;2022-08-25T00:43:03;101380.56;;;11.99;100.00
59158;BME280;44940;55.060;73.168;2022-08-25T00:45:32;101382.31;;;12.04;100.00
59158;BME280;44940;55.060;73.168;2022-08-25T00:47:59;101387.63;;;12.18;100.00
59158;BME280;44940;55.060;73.168;2022-08-25T00:50:30;101371.09;;;12.21;100.00
59158;BME280;44940;55.060;73.168;2022-08-25T00:53:00;101365.78;;;12.07;100.00
59158;BME280;44940;55.060;73.168;2022-08-25T00:55:31;101375.69;;;12.17;100.00
59158;BME280;44940;55.060;73.168;2022-08-25T00:58:03;101364.94;;;12.15;100.00
59158;BME280;44940;55.060;73.168;2022-08-25T01:00:33;101386.94;;;12.21;100.00
59158;BME280;44940;55.060;73.168;2022-08-25T01:03:02;101372.09;;;12.17;100.00
59158;BME280;44940;55.060;73.168;2022-08-25T01:05:31;101376.56;;;12.30;100.00
59158;BME280;44940;55.060;73.168;2022-08-25T01:07:59;101369.38;;;12.29;100.00
59158;BME280;44940;55.060;73.168;2022-08-25T01:10:33;101370.75;;;12.23;100.00
59158;BME280;44940;55.060;73.168;2022-08-25T01:13:05;101368.78;;;12.23;100.00
59158;BME280;44940;55.060;73.168;2022-08-25T01:15:33;101372.84;;;12.26;100.00
59158;BME280;44940;55.060;73.168;2022-08-25T01:18:01;101372.78;;;12.34;100.00
59158;BME280;44940;55.060;73.168;2022-08-25T01:20:31;101366.88;;;12.36;100.00
59158;BME280;44940;55.060;73.168;2022-08-25T01:23:00;101360.97;;;12.37;100.00
59158;BME280;44940;55.060;73.168;2022-08-25T01:25:35;101361.81;;;12.50;100.00
59158;BME280;44940;55.060;73.168;2022-08-25T01:28:08;101360.50;;;12.68;100.00
59158;BME280;44940;55.060;73.168;2022-08-25T01:30:35;101358.44;;;12.77;100.00
59158;BME280;44940;55.060;73.168;2022-08-25T01:33:04;71117.31;;;-144.94;100.00
59158;BME280;44940;55.060;73.168;2022-08-25T01:35:31;71117.31;;;-144.94;100.00
59158;BME280;44940;55.060;73.168;2022-08-25T01:38:00;101358.44;;;12.77;100.00
59158;BME280;44940;55.060;73.168;2022-08-25T01:40:28;71117.31;;;-144.94;100.00
59158;BME280;44940;55.060;73.168;2022-08-25T01:43:05;71117.31;;;-144.94;100.00
59158;BME280;44940;55.060;73.168;2022-08-25T01:45:34;101370.59;;;14.60;100.00
59158;BME280;44940;55.060;73.168;2022-08-25T01:48:01;101366.09;;;14.55;100.00
59158;BME280;44940;55.060;73.168;2022-08-25T01:50:29;71117.31;;;-144.94;100.00
59158;BME280;44940;55.060;73.168;2022-08-25T01:53:02;101368.16;;;14.86;100.00
59158;BME280;44940;55.060;73.168;2022-08-25T01:55:30;101370.81;;;14.82;100.00
59158;BME280;44940;55.060;73.168;2022-08-25T01:58:17;101372.84;;;15.29;100.00
59158;BME280;44940;55.060;73.168;2022-08-25T02:00:46;101364.66;;;16.03;100.00
59158;BME280;44940;55.060;73.168;2022-08-25T02:03:13;101372.25;;;15.87;100.00
59158;BME280;44940;55.060;73.168;2022-08-25T02:05:40;101364.63;;;15.84;100.00
59158;BME280;44940;55.060;73.168;2022-08-25T02:08:10;101350.78;;;15.91;100.00
59158;BME280;44940;55.060;73.168;2022-08-25T02:10:38;101366.13;;;16.55;100.00
59158;BME280;44940;55.060;73.168;2022-08-25T02:13:07;71117.31;;;-144.94;100.00
59158;BME280;44940;55.060;73.168;2022-08-25T02:15:38;71117.31;;;-144.94;100.00
59158;BME280;44940;55.060;73.168;2022-08-25T02:18:05;71117.31;;;-144.94;100.00
59158;BME280;44940;55.060;73.168;2022-08-25T02:20:32;101368.59;;;17.21;96.87
59158;BME280;44940;55.060;73.168;2022-08-25T02:22:59;101363.00;;;16.98;97.16
59158;BME280;44940;55.060;73.168;2022-08-25T02:25:29;101362.34;;;16.86;95.60
59158;BME280;44940;55.060;73.168;2022-08-25T02:27:56;101361.72;;;16.96;94.29
59158;BME280;44940;55.060;73.168;2022-08-25T02:30:24;101361.75;;;17.19;94.27
59158;BME280;44940;55.060;73.168;2022-08-25T02:32:51;101347.41;;;17.47;91.49
59158;BME280;44940;55.060;73.168;2022-08-25T02:35:19;101352.38;;;17.34;91.96
59158;BME280;44940;55.060;73.168;2022-08-25T02:37:46;101353.00;;;17.47;92.03
59158;BME280;44940;55.060;73.168;2022-08-25T02:40:13;101356.63;;;17.24;90.87
59158;BME280;44940;55.060;73.168;2022-08-25T02:42:42;101357.44;;;17.25;89.49
59158;BME280;44940;55.060;73.168;2022-08-25T02:45:10;101356.75;;;17.81;88.61
59158;BME280;44940;55.060;73.168;2022-08-25T02:47:37;71117.31;;;-144.94;100.00
59158;BME280;44940;55.060;73.168;2022-08-25T02:50:05;71117.31;;;-144.94;100.00
59158;BME280;44940;55.060;73.168;2022-08-25T02:52:32;71117.31;;;-144.94;100.00
59158;BME280;44940;55.060;73.168;2022-08-25T02:55:01;71117.31;;;-144.94;100.00
59158;BME280;44940;55.060;73.168;2022-08-25T02:57:30;101341.50;;;20.40;78.83
59158;BME280;44940;55.060;73.168;2022-08-25T02:59:59;101346.88;;;20.77;77.45
59158;BME280;44940;55.060;73.168;2022-08-25T03:02:26;101342.47;;;21.01;74.65
59158;BME280;44940;55.060;73.168;2022-08-25T03:04:53;101338.47;;;21.59;72.94
59158;BME280;44940;55.060;73.168;2022-08-25T03:07:20;101339.59;;;21.94;70.63
59158;BME280;44940;55.060;73.168;2022-08-25T03:09:47;101333.47;;;22.27;68.31
59158;BME280;44940;55.060;73.168;2022-08-25T03:12:15;101331.72;;;22.55;68.38
59158;BME280;44940;55.060;73.168;2022-08-25T03:14:42;101326.38;;;22.71;66.07
59158;BME280;44940;55.060;73.168;2022-08-25T03:17:11;101329.72;;;23.18;64.39
59158;BME280;44940;55.060;73.168;2022-08-25T03:19:38;101328.00;;;23.27;57.16
59158;BME280;44940;55.060;73.168;2022-08-25T03:22:05;71117.31;;;-144.94;100.00
59158;BME280;44940;55.060;73.168;2022-08-25T03:24:32;101321.16;;;23.70;55.49
59158;BME280;44940;55.060;73.168;2022-08-25T03:27:00;71117.31;;;-144.94;100.00
59158;BME280;44940;55.060;73.168;2022-08-25T03:29:29;71117.31;;;-144.94;100.00
59158;BME280;44940;55.060;73.168;2022-08-25T03:31:57;101324.84;;;24.69;54.06
59158;BME280;44940;55.060;73.168;2022-08-25T03:34:28;101328.06;;;24.67;51.88
59158;BME280;44940;55.060;73.168;2022-08-25T03:36:56;101321.25;;;24.92;51.33
59158;BME280;44940;55.060;73.168;2022-08-25T03:39:25;101306.38;;;25.11;48.30
59158;BME280;44940;55.060;73.168;2022-08-25T03:41:52;101311.88;;;25.22;47.82
59158;BME280;44940;55.060;73.168;2022-08-25T03:44:20;101308.44;;;25.34;47.01
59158;BME280;44940;55.060;73.168;2022-08-25T03:46:49;101294.28;;;25.54;46.15
59158;BME280;44940;55.060;73.168;2022-08-25T03:49:19;101311.75;;;25.52;47.57
59158;BME280;44940;55.060;73.168;2022-08-25T03:51:51;101293.34;;;25.60;45.37
59158;BME280;44940;55.060;73.168;2022-08-25T03:54:21;101292.03;;;25.88;43.93
59158;BME280;44940;55.060;73.168;2022-08-25T03:56:48;101291.34;;;26.00;45.65
59158;BME280;44940;55.060;73.168;2022-08-25T03:59:16;101289.09;;;26.12;43.79
59158;BME280;44940;55.060;73.168;2022-08-25T04:01:45;101293.59;;;26.29;42.78
59158;BME280;44940;55.060;73.168;2022-08-25T04:04:13;101287.31;;;26.57;41.40
59158;BME280;44940;55.060;73.168;2022-08-25T04:06:43;71117.31;;;-144.94;100.00
59158;BME280;44940;55.060;73.168;2022-08-25T04:09:12;71117.31;;;-144.94;100.00
59158;BME280;44940;55.060;73.168;2022-08-25T04:11:39;101287.31;;;26.57;41.40
59158;BME280;44940;55.060;73.168;2022-08-25T04:14:06;71117.31;;;-144.94;100.00
59158;BME280;44940;55.060;73.168;2022-08-25T04:16:34;71117.31;;;-144.94;100.00
59158;BME280;44940;55.060;73.168;2022-08-25T04:21:30;101281.41;;;27.17;38.71
59158;BME280;44940;55.060;73.168;2022-08-25T04:23:57;101289.09;;;27.49;39.62
59158;BME280;44940;55.060;73.168;2022-08-25T04:26:27;101295.16;;;27.67;38.21
59158;BME280;44940;55.060;73.168;2022-08-25T04:28:56;101280.97;;;27.80;38.40
59158;BME280;44940;55.060;73.168;2022-08-25T04:31:25;71117.31;;;-144.94;100.00
59158;BME280;44940;55.060;73.168;2022-08-25T04:33:53;71117.31;;;-144.94;100.00
59158;BME280;44940;55.060;73.168;2022-08-25T04:36:20;71117.31;;;-144.94;100.00
59158;BME280;44940;55.060;73.168;2022-08-25T04:38:48;71117.31;;;-144.94;100.00
59158;BME280;44940;55.060;73.168;2022-08-25T04:41:18;71117.31;;;-144.94;100.00
59158;BME280;44940;55.060;73.168;2022-08-25T04:43:47;71117.31;;;-144.94;100.00
59158;BME280;44940;55.060;73.168;2022-08-25T04:46:17;71117.31;;;-144.94;100.00
59158;BME280;44940;55.060;73.168;2022-08-25T04:48:45;71117.31;;;-144.94;100.00
59158;BME280;44940;55.060;73.168;2022-08-25T04:51:14;71117.31;;;-144.94;100.00
59158;BME280;44940;55.060;73.168;2022-08-25T04:53:41;71117.31;;;-144.94;100.00
59158;BME280;44940;55.060;73.168;2022-08-25T04:56:11;71117.31;;;-144.94;100.00
59158;BME280;44940;55.060;73.168;2022-08-25T04:58:39;71117.31;;;-144.94;100.00
59158;BME280;44940;55.060;73.168;2022-08-25T05:01:10;71117.31;;;-144.94;100.00
59158;BME280;44940;55.060;73.168;2022-08-25T05:03:37;71117.31;;;-144.94;100.00
59158;BME280;44940;55.060;73.168;2022-08-25T05:06:05;101280.97;;;27.80;38.40
59158;BME280;44940;55.060;73.168;2022-08-25T05:08:33;101252.41;;;27.84;35.44
59158;BME280;44940;55.060;73.168;2022-08-25T05:11:04;101245.34;;;27.59;37.46
59158;BME280;44940;55.060;73.168;2022-08-25T05:13:32;101235.19;;;27.29;38.26
59158;BME280;44940;55.060;73.168;2022-08-25T05:15:59;101240.34;;;27.18;38.07
59158;BME280;44940;55.060;73.168;2022-08-25T05:18:29;101241.97;;;27.19;35.77
59158;BME280;44940;55.060;73.168;2022-08-25T05:21:01;101225.53;;;27.10;33.37
59158;BME280;44940;55.060;73.168;2022-08-25T05:23:28;101228.97;;;27.18;35.53
59158;BME280;44940;55.060;73.168;2022-08-25T05:26:01;101222.94;;;27.16;34.15
59158;BME280;44940;55.060;73.168;2022-08-25T05:28:29;101236.91;;;27.10;32.53
59158;BME280;44940;55.060;73.168;2022-08-25T05:30:57;101225.19;;;27.08;33.55
59158;BME280;44940;55.060;73.168;2022-08-25T05:33:26;101227.66;;;27.06;34.24
59158;BME280;44940;55.060;73.168;2022-08-25T05:35:54;101224.56;;;27.01;32.88
59158;BME280;44940;55.060;73.168;2022-08-25T05:38:21;101218.91;;;26.97;34.20
59158;BME280;44940;55.060;73.168;2022-08-25T05:40:51;101213.97;;;26.85;33.73
59158;BME280;44940;55.060;73.168;2022-08-25T05:43:19;101210.59;;;26.90;36.32
59158;BME280;44940;55.060;73.168;2022-08-25T05:45:47;101207.22;;;26.79;37.29
59158;BME280;44940;55.060;73.168;2022-08-25T05:48:14;101205.25;;;26.76;34.81
59158;BME280;44940;55.060;73.168;2022-08-25T05:50:41;101199.06;;;26.81;33.85
59158;BME280;44940;55.060;73.168;2022-08-25T05:53:18;101188.75;;;26.71;33.76
59158;BME280;44940;55.060;73.168;2022-08-25T05:55:45;101197.19;;;26.74;35.53
59158;BME280;44940;55.060;73.168;2022-08-25T05:58:12;101198.97;;;26.68;34.72
59158;BME280;44940;55.060;73.168;2022-08-25T06:00:40;101187.41;;;26.59;34.18
59158;BME280;44940;55.060;73.168;2022-08-25T06:03:07;101194.63;;;26.64;33.59
59158;BME280;44940;55.060;73.168;2022-08-25T06:05:34;101186.16;;;26.60;36.52
59158;BME280;44940;55.060;73.168;2022-08-25T06:08:02;101186.97;;;26.60;36.16
59158;BME280;44940;55.060;73.168;2022-08-25T06:10:31;101180.13;;;26.58;35.72
59158;BME280;44940;55.060;73.168;2022-08-25T06:12:59;101179.63;;;26.63;35.07
59158;BME280;44940;55.060;73.168;2022-08-25T06:15:27;101171.34;;;26.52;36.78
59158;BME280;44940;55.060;73.168;2022-08-25T06:17:54;101168.94;;;26.51;33.51
59158;BME280;44940;55.060;73.168;2022-08-25T06:20:25;101168.25;;;26.47;34.96
59158;BME280;44940;55.060;73.168;2022-08-25T06:22:53;101159.09;;;26.55;35.44
59158;BME280;44940;55.060;73.168;2022-08-25T06:25:22;101161.75;;;26.63;35.07
59158;BME280;44940;55.060;73.168;2022-08-25T06:27:51;101159.28;;;26.65;36.23
59158;BME280;44940;55.060;73.168;2022-08-25T06:30:21;101158.63;;;26.57;34.19
59158;BME280;44940;55.060;73.168;2022-08-25T06:32:48;101150.91;;;26.57;34.02
59158;BME280;44940;55.060;73.168;2022-08-25T06:35:17;101146.31;;;26.47;33.92
59158;BME280;44940;55.060;73.168;2022-08-25T06:37:45;101142.72;;;26.27;33.83
59158;BME280;44940;55.060;73.168;2022-08-25T06:40:14;101145.13;;;26.28;35.30
59158;BME280;44940;55.060;73.168;2022-08-25T06:42:42;101148.06;;;26.41;35.75
59158;BME280;44940;55.060;73.168;2022-08-25T06:45:10;101130.66;;;26.39;35.47
59158;BME280;44940;55.060;73.168;2022-08-25T06:47:37;101136.84;;;26.34;36.06
59158;BME280;44940;55.060;73.168;2022-08-25T06:50:05;101124.19;;;26.39;36.63
59158;BME280;44940;55.060;73.168;2022-08-25T06:52:32;101131.03;;;26.41;37.60
59158;BME280;44940;55.060;73.168;2022-08-25T06:55:01;101126.69;;;26.37;37.21
59158;BME280;44940;55.060;73.168;2022-08-25T06:57:29;101123.66;;;26.27;37.26
59158;BME280;44940;55.060;73.168;2022-08-25T06:59:59;101123.53;;;26.15;37.70
59158;BME280;44940;55.060;73.168;2022-08-25T07:02:28;101117.25;;;26.07;37.16
59158;BME280;44940;55.060;73.168;2022-08-25T07:04:55;101116.22;;;25.97;36.80
59158;BME280;44940;55.060;73.168;2022-08-25T07:07:22;101104.69;;;25.88;36.76
59158;BME280;44940;55.060;73.168;2022-08-25T07:09:49;101104.44;;;25.99;36.78
59158;BME280;44940;55.060;73.168;2022-08-25T07:12:16;101110.75;;;26.07;37.28
59158;BME280;44940;55.060;73.168;2022-08-25T07:14:44;101104.97;;;25.94;37.67
59158;BME280;44940;55.060;73.168;2022-08-25T07:17:11;101108.59;;;25.94;39.16
59158;BME280;44940;55.060;73.168;2022-08-25T07:19:40;101099.19;;;25.97;38.20
59158;BME280;44940;55.060;73.168;2022-08-25T07:22:07;101092.63;;;26.00;39.07
59158;BME280;44940;55.060;73.168;2022-08-25T07:24:35;101093.88;;;25.99;38.79
59158;BME280;44940;55.060;73.168;2022-08-25T07:27:02;101091.59;;;26.11;38.88
59158;BME280;44940;55.060;73.168;2022-08-25T07:29:29;101091.41;;;26.01;38.06
59158;BME280;44940;55.060;73.168;2022-08-25T07:31:58;101084.13;;;26.00;38.21
59158;BME280;44940;55.060;73.168;2022-08-25T07:34:26;101079.88;;;26.09;38.80
59158;BME280;44940;55.060;73.168;2022-08-25T07:37:13;101077.59;;;26.04;38.96
59158;BME280;44940;55.060;73.168;2022-08-25T07:39:40;101078.72;;;26.06;39.19
59158;BME280;44940;55.060;73.168;2022-08-25T07:42:07;101072.84;;;25.97;40.15
59158;BME280;44940;55.060;73.168;2022-08-25T07:44:35;101072.06;;;25.96;40.19
59158;BME280;44940;55.060;73.168;2022-08-25T07:47:02;101071.00;;;26.07;39.92
59158;BME280;44940;55.060;73.168;2022-08-25T07:49:30;101064.44;;;26.10;39.69
59158;BME280;44940;55.060;73.168;2022-08-25T07:51:57;101066.22;;;26.04;39.66
59158;BME280;44940;55.060;73.168;2022-08-25T07:54:26;101064.59;;;26.02;41.02
59158;BME280;44940;55.060;73.168;2022-08-25T07:56:53;101057.34;;;26.01;40.43
59158;BME280;44940;55.060;73.168;2022-08-25T07:59:20;101048.91;;;25.98;39.56
59158;BME280;44940;55.060;73.168;2022-08-25T08:01:48;101055.47;;;25.95;39.58
59158;BME280;44940;55.060;73.168;2022-08-25T08:04:15;101047.31;;;25.97;39.55
59158;BME280;44940;55.060;73.168;2022-08-25T08:06:42;101054.94;;;26.00;40.84
59158;BME280;44940;55.060;73.168;2022-08-25T08:09:11;101046.72;;;26.06;40.28
59158;BME280;44940;55.060;73.168;2022-08-25T08:11:40;101043.69;;;26.13;41.14
59158;BME280;44940;55.060;73.168;2022-08-25T08:14:10;101047.22;;;26.17;40.86
59158;BME280;44940;55.060;73.168;2022-08-25T08:16:39;101033.22;;;26.10;40.48
59158;BME280;44940;55.060;73.168;2022-08-25T08:19:06;101044.94;;;26.12;40.29
59158;BME280;44940;55.060;73.168;2022-08-25T08:21:35;101041.38;;;26.08;40.70
59158;BME280;44940;55.060;73.168;2022-08-25T08:24:03;101039.44;;;26.05;41.33
59158;BME280;44940;55.060;73.168;2022-08-25T08:26:30;101036.06;;;26.10;40.84
59158;BME280;44940;55.060;73.168;2022-08-25T08:29:00;101037.66;;;26.11;41.13
59158;BME280;44940;55.060;73.168;2022-08-25T08:31:29;101030.63;;;26.15;41.40
59158;BME280;44940;55.060;73.168;2022-08-25T08:33:57;101033.03;;;26.17;41.24
59158;BME280;44940;55.060;73.168;2022-08-25T08:36:24;101031.69;;;26.21;41.64
59158;BME280;44940;55.060;73.168;2022-08-25T08:38:52;101023.25;;;26.18;41.28
59158;BME280;44940;55.060;73.168;2022-08-25T08:41:38;101024.34;;;26.24;41.40
59158;BME280;44940;55.060;73.168;2022-08-25T08:44:34;101027.53;;;26.26;43.10
59158;BME280;44940;55.060;73.168;2022-08-25T08:47:10;101019.09;;;26.39;41.65
59158;BME280;44940;55.060;73.168;2022-08-25T08:49:48;101022.38;;;26.37;41.94
59158;BME280;44940;55.060;73.168;2022-08-25T08:52:35;101005.34;;;26.37;41.50
59158;BME280;44940;55.060;73.168;2022-08-25T08:55:08;101005.63;;;26.43;41.35
59158;BME280;44940;55.060;73.168;2022-08-25T08:57:43;101009.16;;;26.47;43.20
59158;BME280;44940;55.060;73.168;2022-08-25T09:00:14;101023.50;;;26.56;44.57
59158;BME280;44940;55.060;73.168;2022-08-25T09:02:47;101017.19;;;26.65;43.61
59158;BME280;44940;55.060;73.168;2022-08-25T09:05:17;101010.97;;;26.70;43.68
59158;BME280;44940;55.060;73.168;2022-08-25T09:07:47;101004.81;;;26.71;42.90
59158;BME280;44940;55.060;73.168;2022-08-25T09:10:16;101001.78;;;26.49;43.69
59158;BME280;44940;55.060;73.168;2022-08-25T09:12:51;101002.69;;;26.46;43.58
59158;BME280;44940;55.060;73.168;2022-08-25T09:15:34;100997.16;;;26.39;43.42
59158;BME280;44940;55.060;73.168;2022-08-25T09:18:26;101006.03;;;26.41;43.33
59158;BME280;44940;55.060;73.168;2022-08-25T09:21:03;100994.84;;;26.34;43.14
59158;BME280;44940;55.060;73.168;2022-08-25T09:23:43;100999.03;;;26.29;43.28
59158;BME280;44940;55.060;73.168;2022-08-25T09:26:24;100985.72;;;26.26;43.31
59158;BME280;44940;55.060;73.168;2022-08-25T09:29:00;100985.44;;;26.21;42.46
59158;BME280;44940;55.060;73.168;2022-08-25T09:31:32;100976.31;;;26.29;43.33
59158;BME280;44940;55.060;73.168;2022-08-25T09:34:03;100962.81;;;26.33;43.31
59158;BME280;44940;55.060;73.168;2022-08-25T09:36:31;100978.59;;;26.51;42.75
59158;BME280;44940;55.060;73.168;2022-08-25T09:38:59;100979.28;;;26.55;42.79
59158;BME280;44940;55.060;73.168;2022-08-25T09:41:45;100969.19;;;26.54;42.52
59158;BME280;44940;55.060;73.168;2022-08-25T09:44:21;100960.72;;;26.67;40.61
59158;BME280;44940;55.060;73.168;2022-08-25T09:47:05;100955.72;;;26.71;40.44
59158;BME280;44940;55.060;73.168;2022-08-25T09:49:36;100956.09;;;26.85;40.97
59158;BME280;44940;55.060;73.168;2022-08-25T09:52:30;100955.31;;;26.85;41.22
59158;BME280;44940;55.060;73.168;2022-08-25T09:55:00;100957.88;;;26.79;40.87
59158;BME280;44940;55.060;73.168;2022-08-25T09:57:31;100958.50;;;26.87;40.92
59158;BME280;44940;55.060;73.168;2022-08-25T10:00:10;100951.91;;;26.90;40.48
59158;BME280;44940;55.060;73.168;2022-08-25T10:02:40;100944.63;;;26.89;41.53
59158;BME280;44940;55.060;73.168;2022-08-25T10:05:25;100941.31;;;26.90;42.11
59158;BME280;44940;55.060;73.168;2022-08-25T10:07:55;100938.25;;;26.98;41.03
59158;BME280;44940;55.060;73.168;2022-08-25T10:10:28;100935.34;;;27.01;41.71
59158;BME280;44940;55.060;73.168;2022-08-25T10:12:56;100930.06;;;26.87;40.80
59158;BME280;44940;55.060;73.168;2022-08-25T10:15:29;100928.78;;;26.75;41.45
59158;BME280;44940;55.060;73.168;2022-08-25T10:18:22;100927.19;;;26.74;42.33
59158;BME280;44940;55.060;73.168;2022-08-25T10:21:08;100921.50;;;26.74;42.25
59158;BME280;44940;55.060;73.168;2022-08-25T10:23:39;100918.75;;;26.71;41.78
59158;BME280;44940;55.060;73.168;2022-08-25T10:26:17;100918.44;;;26.69;41.19
59158;BME280;44940;55.060;73.168;2022-08-25T10:28:59;100915.81;;;26.61;41.60
59158;BME280;44940;55.060;73.168;2022-08-25T10:31:34;100916.22;;;26.60;40.97
59158;BME280;44940;55.060;73.168;2022-08-25T10:34:18;100908.59;;;26.44;40.99
59158;BME280;44940;55.060;73.168;2022-08-25T10:36:53;100914.28;;;26.44;42.43
59158;BME280;44940;55.060;73.168;2022-08-25T10:39:35;100903.97;;;26.34;42.48
59158;BME280;44940;55.060;73.168;2022-08-25T10:42:18;100895.00;;;26.07;42.10
59158;BME280;44940;55.060;73.168;2022-08-25T10:44:55;100900.69;;;26.07;43.06
59158;BME280;44940;55.060;73.168;2022-08-25T10:48:00;100905.75;;;25.83;43.74
59158;BME280;44940;55.060;73.168;2022-08-25T10:50:39;100900.47;;;25.68;44.42
59158;BME280;44940;55.060;73.168;2022-08-25T10:53:14;100896.72;;;25.71;45.38
59158;BME280;44940;55.060;73.168;2022-08-25T10:55:51;100887.19;;;25.62;44.86
59158;BME280;44940;55.060;73.168;2022-08-25T10:58:27;100887.94;;;25.66;44.93
59158;BME280;44940;55.060;73.168;2022-08-25T11:01:06;100873.34;;;25.67;44.38
59158;BME280;44940;55.060;73.168;2022-08-25T11:03:43;100881.81;;;25.84;43.81
59158;BME280;44940;55.060;73.168;2022-08-25T11:06:17;100873.91;;;25.91;44.15
59158;BME280;44940;55.060;73.168;2022-08-25T11:08:49;100873.56;;;25.89;43.52
59158;BME280;44940;55.060;73.168;2022-08-25T11:11:23;100873.72;;;25.98;42.96
59158;BME280;44940;55.060;73.168;2022-08-25T11:13:54;100869.63;;;25.99;43.69
59158;BME280;44940;55.060;73.168;2022-08-25T11:16:32;100863.50;;;26.01;43.26
59158;BME280;44940;55.060;73.168;2022-08-25T11:19:06;100870.34;;;26.04;43.44
59158;BME280;44940;55.060;73.168;2022-08-25T11:21:43;100860.81;;;26.10;42.64
59158;BME280;44940;55.060;73.168;2022-08-25T11:24:28;100865.25;;;26.11;43.62
59158;BME280;44940;55.060;73.168;2022-08-25T11:26:59;100865.03;;;26.06;44.00
59158;BME280;44940;55.060;73.168;2022-08-25T11:29:29;100860.31;;;25.99;42.40
59158;BME280;44940;55.060;73.168;2022-08-25T11:31:59;100853.84;;;25.98;42.94
59158;BME280;44940;55.060;73.168;2022-08-25T11:34:30;100863.44;;;26.05;42.91
59158;BME280;44940;55.060;73.168;2022-08-25T11:37:03;100847.09;;;26.09;41.85
59158;BME280;44940;55.060;73.168;2022-08-25T11:39:43;100858.69;;;26.14;42.49
59158;BME280;44940;55.060;73.168;2022-08-25T11:42:28;100855.72;;;26.18;41.46
59158;BME280;44940;55.060;73.168;2022-08-25T11:45:06;100855.72;;;26.18;42.01
59158;BME280;44940;55.060;73.168;2022-08-25T11:47:52;100853.25;;;26.20;41.54
59158;BME280;44940;55.060;73.168;2022-08-25T11:50:28;100851.91;;;26.24;41.02
59158;BME280;44940;55.060;73.168;2022-08-25T11:53:15;100848.50;;;26.29;39.86
59158;BME280;44940;55.060;73.168;2022-08-25T11:55:48;100852.16;;;26.30;39.49
59158;BME280;44940;55.060;73.168;2022-08-25T11:58:43;100840.00;;;26.29;40.19
59158;BME280;44940;55.060;73.168;2022-08-25T12:04:32;100850.75;;;26.22;41.89
59158;BME280;44940;55.060;73.168;2022-08-25T12:07:17;100856.63;;;26.15;42.87
59158;BME280;44940;55.060;73.168;2022-08-25T12:10:12;100846.63;;;26.10;43.22
59158;BME280;44940;55.060;73.168;2022-08-25T12:13:25;100847.63;;;26.04;44.27
59158;BME280;44940;55.060;73.168;2022-08-25T12:15:57;100840.53;;;25.95;44.92
59158;BME280;44940;55.060;73.168;2022-08-25T12:18:41;100844.63;;;25.94;44.18
59158;BME280;44940;55.060;73.168;2022-08-25T12:21:12;100841.00;;;25.94;45.42
59158;BME280;44940;55.060;73.168;2022-08-25T12:23:41;100841.66;;;25.85;45.95
59158;BME280;44940;55.060;73.168;2022-08-25T12:26:17;100835.69;;;25.80;46.46
59158;BME280;44940;55.060;73.168;2022-08-25T12:28:55;100840.94;;;25.81;45.45
59158;BME280;44940;55.060;73.168;2022-08-25T12:31:50;100836.50;;;25.80;45.91
59158;BME280;44940;55.060;73.168;2022-08-25T12:34:42;100837.03;;;25.75;46.50
59158;BME280;44940;55.060;73.168;2022-08-25T12:37:15;100840.34;;;25.74;47.00
59158;BME280;44940;55.060;73.168;2022-08-25T12:39:51;100841.28;;;25.67;47.33
59158;BME280;44940;55.060;73.168;2022-08-25T12:42:30;100832.59;;;25.58;47.66
59158;BME280;44940;55.060;73.168;2022-08-25T12:45:11;100843.41;;;25.63;48.40
59158;BME280;44940;55.060;73.168;2022-08-25T12:47:43;100844.66;;;25.62;49.78
59158;BME280;44940;55.060;73.168;2022-08-25T12:50:34;100842.38;;;25.57;50.72
59158;BME280;44940;55.060;73.168;2022-08-25T12:53:10;100849.53;;;25.45;51.10
59158;BME280;44940;55.060;73.168;2022-08-25T12:55:42;100853.72;;;25.40;50.88
59158;BME280;44940;55.060;73.168;2022-08-25T12:58:13;100859.38;;;25.40;50.80
59158;BME280;44940;55.060;73.168;2022-08-25T13:00:54;100856.28;;;25.35;50.14
59158;BME280;44940;55.060;73.168;2022-08-25T13:03:46;100847.88;;;25.31;50.31